createdAt,value
2023-06-14T00:02:22.706Z,11.50
2023-06-14T00:04:52.467Z,11.50
2023-06-14T00:07:25.037Z,11.40
2023-06-14T00:09:52.382Z,11.30
2023-06-14T00:12:19.776Z,11.20
2023-06-14T00:14:48.292Z,11.10
2023-06-14T00:17:17.765Z,11.00
2023-06-14T00:19:45.270Z,10.90
2023-06-14T00:22:13.275Z,10.80
2023-06-14T00:24:41.213Z,10.70
2023-06-14T00:27:08.613Z,10.60
2023-06-14T00:29:36.425Z,10.50
2023-06-14T00:32:05.866Z,10.50
2023-06-14T00:34:33.404Z,10.50
2023-06-14T00:37:01.144Z,10.40
2023-06-14T00:39:28.666Z,10.30
2023-06-14T00:41:56.713Z,10.30
2023-06-14T00:44:24.896Z,10.30
2023-06-14T00:46:52.639Z,10.20
2023-06-14T00:49:21.131Z,10.10
2023-06-14T00:51:48.830Z,10.10
2023-06-14T00:54:16.212Z,10.00
2023-06-14T00:56:45.266Z,10.00
2023-06-14T00:59:13.595Z,10.10
2023-06-14T01:01:41.632Z,10.20
2023-06-14T01:04:09.929Z,10.30
2023-06-14T01:07:05.138Z,10.20
2023-06-14T01:09:43.554Z,10.10
2023-06-14T01:12:37.055Z,10.10
2023-06-14T01:15:05.758Z,10.10
2023-06-14T01:17:34.585Z,10.00
2023-06-14T01:20:10.865Z,9.90
2023-06-14T01:22:38.917Z,9.90
2023-06-14T01:25:07.722Z,9.90
2023-06-14T01:27:35.497Z,9.80
2023-06-14T01:30:03.643Z,9.70
2023-06-14T01:32:31.299Z,9.60
2023-06-14T01:34:58.930Z,9.50
2023-06-14T01:37:30.933Z,9.40
2023-06-14T01:40:01.820Z,9.40
2023-06-14T01:42:29.198Z,9.40
2023-06-14T01:44:57.658Z,9.30
2023-06-14T01:47:25.533Z,9.30
2023-06-14T01:49:53.143Z,9.30
2023-06-14T01:52:20.755Z,9.10
2023-06-14T01:54:48.867Z,9.10
2023-06-14T01:57:17.175Z,9.00
2023-06-14T01:59:49.237Z,9.00
2023-06-14T02:02:16.713Z,9.00
2023-06-14T02:04:44.102Z,9.00
2023-06-14T02:07:12.968Z,8.90
2023-06-14T02:09:43.010Z,8.90
2023-06-14T02:12:11.793Z,8.80
2023-06-14T02:14:39.449Z,8.80
2023-06-14T02:17:07.631Z,8.90
2023-06-14T02:20:00.793Z,9.10
2023-06-14T02:22:28.218Z,9.30
2023-06-14T02:25:02.114Z,9.40
2023-06-14T02:27:29.979Z,9.30
2023-06-14T02:29:57.381Z,9.20
2023-06-14T02:32:27.755Z,9.10
2023-06-14T02:34:55.831Z,9.00
2023-06-14T02:37:23.200Z,8.90
2023-06-14T02:39:50.621Z,8.80
2023-06-14T02:42:20.162Z,8.80
2023-06-14T02:44:52.163Z,8.70
2023-06-14T02:47:20.160Z,8.70
2023-06-14T02:49:47.723Z,8.70
2023-06-14T02:52:16.845Z,8.70
2023-06-14T02:54:44.299Z,8.80
2023-06-14T02:57:12.402Z,8.70
2023-06-14T02:59:42.115Z,8.70
2023-06-14T03:02:09.806Z,8.70
2023-06-14T03:04:38.753Z,8.70
2023-06-14T03:07:11.919Z,8.70
2023-06-14T03:09:41.922Z,8.70
2023-06-14T03:12:12.367Z,8.70
2023-06-14T03:14:40.741Z,8.60
2023-06-14T03:17:11.193Z,8.70
2023-06-14T03:19:42.504Z,8.60
2023-06-14T03:22:10.057Z,8.60
2023-06-14T03:24:39.157Z,8.70
2023-06-14T03:27:13.745Z,8.70
2023-06-14T03:29:44.052Z,8.70
2023-06-14T03:32:12.059Z,8.70
2023-06-14T03:34:42.719Z,8.70
2023-06-14T03:37:16.104Z,8.80
2023-06-14T03:39:47.616Z,8.80
2023-06-14T03:42:19.882Z,8.90
2023-06-14T03:44:48.768Z,9.00
2023-06-14T03:47:17.437Z,9.00
2023-06-14T03:49:44.984Z,9.20
2023-06-14T03:52:12.717Z,9.20
2023-06-14T03:55:54.652Z,9.20
2023-06-14T03:57:33.547Z,9.30
2023-06-14T04:00:01.057Z,9.40
2023-06-14T04:02:32.041Z,9.40
2023-06-14T04:05:01.951Z,9.40
2023-06-14T04:07:29.979Z,9.50
2023-06-14T04:09:57.461Z,9.60
2023-06-14T04:12:24.934Z,9.70
2023-06-14T04:14:53.716Z,10.00
2023-06-14T04:17:21.280Z,10.20
2023-06-14T04:19:48.763Z,10.40
2023-06-14T04:22:16.567Z,10.50
2023-06-14T04:24:47.347Z,10.70
2023-06-14T04:27:26.165Z,10.90
2023-06-14T04:30:03.682Z,11.00
2023-06-14T04:32:43.790Z,11.20
2023-06-14T04:35:13.793Z,11.30
2023-06-14T04:37:44.565Z,11.30
2023-06-14T04:40:13.006Z,11.50
2023-06-14T04:42:42.110Z,11.50
2023-06-14T04:45:12.408Z,11.70
2023-06-14T04:47:41.734Z,11.80
2023-06-14T04:50:09.962Z,11.70
2023-06-14T04:52:38.172Z,11.70
2023-06-14T04:55:08.070Z,11.80
2023-06-14T04:57:36.212Z,12.00
2023-06-14T05:00:06.887Z,12.10
2023-06-14T05:02:34.872Z,12.30
2023-06-14T05:05:03.029Z,12.50
2023-06-14T05:10:22.660Z,12.90
2023-06-14T05:12:50.169Z,13.10
2023-06-14T05:15:19.875Z,13.10
2023-06-14T05:17:54.436Z,13.20
2023-06-14T05:20:26.033Z,13.20
2023-06-14T05:22:54.868Z,13.20
2023-06-14T05:25:22.488Z,13.30
2023-06-14T05:27:50.309Z,13.40
2023-06-14T05:30:17.845Z,13.60
2023-06-14T05:32:46.069Z,13.70
2023-06-14T05:35:14.040Z,13.90
2023-06-14T05:37:41.827Z,13.90
2023-06-14T05:40:10.104Z,13.90
2023-06-14T05:42:37.482Z,13.80
2023-06-14T05:45:07.169Z,13.80
2023-06-14T05:47:34.792Z,13.90
2023-06-14T05:50:02.262Z,14.10
2023-06-14T05:52:30.649Z,14.30
2023-06-14T05:54:58.077Z,14.50
2023-06-14T05:57:25.412Z,14.80
2023-06-14T05:59:52.799Z,15.10
2023-06-14T06:02:20.198Z,15.50
2023-06-14T06:04:47.738Z,15.90
2023-06-14T06:07:15.317Z,16.00
2023-06-14T06:09:42.721Z,15.90
2023-06-14T06:12:10.197Z,16.10
2023-06-14T06:14:37.615Z,16.40
2023-06-14T06:17:06.009Z,17.00
2023-06-14T06:19:33.504Z,17.50
2023-06-14T06:22:01.288Z,17.90
2023-06-14T06:24:29.277Z,18.30
2023-06-14T06:26:56.732Z,18.70
2023-06-14T06:29:24.105Z,18.50
2023-06-14T06:31:51.509Z,18.70
2023-06-14T06:34:18.965Z,19.00
2023-06-14T06:36:46.421Z,18.80
2023-06-14T06:39:13.797Z,19.10
2023-06-14T06:41:41.235Z,20.00
2023-06-14T06:44:08.711Z,21.20
2023-06-14T06:46:36.253Z,21.90
2023-06-14T06:49:03.660Z,22.30
2023-06-14T06:51:31.058Z,22.80
2023-06-14T06:53:58.428Z,22.90
2023-06-14T06:56:25.886Z,23.50
2023-06-14T06:58:53.317Z,24.40
2023-06-14T07:01:25.489Z,25.10
2023-06-14T07:03:53.480Z,25.90
2023-06-14T07:06:21.435Z,26.00
2023-06-14T07:08:49.594Z,26.50
2023-06-14T07:11:17.009Z,27.00
2023-06-14T07:13:44.459Z,27.90
2023-06-14T07:16:11.957Z,29.10
2023-06-14T07:18:39.413Z,28.40
2023-06-14T07:21:06.813Z,28.40
2023-06-14T07:23:34.202Z,29.10
2023-06-14T07:26:01.556Z,28.90
2023-06-14T07:28:28.965Z,29.20
2023-06-14T07:30:56.410Z,30.20
2023-06-14T07:33:23.982Z,30.00
2023-06-14T07:35:52.846Z,29.60
2023-06-14T07:38:20.281Z,28.90
2023-06-14T07:40:47.876Z,28.90
2023-06-14T07:43:15.420Z,27.90
2023-06-14T07:45:51.054Z,26.90
2023-06-14T07:48:27.706Z,26.50
2023-06-14T07:50:56.857Z,26.00
2023-06-14T07:53:24.313Z,25.50
2023-06-14T07:55:53.907Z,25.00
2023-06-14T07:58:21.633Z,25.00
2023-06-14T08:00:49.016Z,25.50
2023-06-14T08:03:16.822Z,25.30
2023-06-14T08:05:44.328Z,24.80
2023-06-14T08:08:11.655Z,24.10
2023-06-14T08:10:39.105Z,24.40
2023-06-14T08:13:06.550Z,25.20
2023-06-14T08:15:35.389Z,25.00
2023-06-14T08:18:03.131Z,24.50
2023-06-14T08:20:32.561Z,24.80
2023-06-14T08:23:01.188Z,25.10
2023-06-14T08:25:28.846Z,26.10
2023-06-14T08:27:56.272Z,25.80
2023-06-14T08:30:23.958Z,25.40
2023-06-14T08:33:02.258Z,24.50
2023-06-14T08:35:39.609Z,23.70
2023-06-14T08:38:06.999Z,23.30
2023-06-14T08:40:38.026Z,23.00
2023-06-14T08:43:05.571Z,22.80
2023-06-14T08:45:33.023Z,22.80
2023-06-14T08:48:01.615Z,22.50
2023-06-14T08:50:32.062Z,22.40
2023-06-14T08:53:03.663Z,23.20
2023-06-14T08:55:34.781Z,25.40
2023-06-14T08:58:04.926Z,26.00
2023-06-14T09:00:34.228Z,26.10
2023-06-14T09:03:02.393Z,25.90
2023-06-14T09:05:30.144Z,26.50
2023-06-14T09:08:04.152Z,25.90
2023-06-14T09:10:38.845Z,25.20
2023-06-14T09:13:07.659Z,24.40
2023-06-14T09:15:36.352Z,23.70
2023-06-14T09:18:04.420Z,22.90
2023-06-14T09:20:32.869Z,23.10
2023-06-14T09:23:01.931Z,23.60
2023-06-14T09:25:39.377Z,23.30
2023-06-14T09:28:09.736Z,23.50
2023-06-14T09:30:40.478Z,23.40
2023-06-14T09:33:08.495Z,23.30
2023-06-14T09:35:37.353Z,23.30
2023-06-14T09:38:05.001Z,23.50
2023-06-14T09:40:35.975Z,23.50
2023-06-14T09:43:07.437Z,23.00
2023-06-14T09:45:34.853Z,22.70
2023-06-14T09:48:06.922Z,22.70
2023-06-14T09:50:36.366Z,22.60
2023-06-14T09:53:11.320Z,22.90
2023-06-14T09:55:41.442Z,23.20
2023-06-14T09:58:10.972Z,23.30
2023-06-14T10:00:40.095Z,23.30
2023-06-14T10:03:17.808Z,23.80
2023-06-14T10:05:48.143Z,23.80
2023-06-14T10:08:18.907Z,23.30
2023-06-14T10:10:46.725Z,23.10
2023-06-14T10:13:15.531Z,22.60
2023-06-14T10:16:00.028Z,22.80
2023-06-14T10:19:24.601Z,23.00
2023-06-14T10:22:10.868Z,23.40
2023-06-14T10:24:45.792Z,22.80
2023-06-14T10:27:18.355Z,22.90
2023-06-14T10:30:16.534Z,23.30
2023-06-14T10:33:05.338Z,23.50
2023-06-14T10:35:32.784Z,23.40
2023-06-14T10:38:15.886Z,23.70
2023-06-14T10:40:46.066Z,23.60
2023-06-14T10:43:24.393Z,23.70
2023-06-14T10:46:17.837Z,23.80
2023-06-14T10:48:48.682Z,22.80
2023-06-14T10:51:22.269Z,22.10
2023-06-14T10:53:50.885Z,21.60
2023-06-14T10:56:38.582Z,22.00
2023-06-14T10:59:06.562Z,22.80
2023-06-14T11:01:41.474Z,23.80
2023-06-14T11:04:13.935Z,24.60
2023-06-14T11:06:48.007Z,25.00
2023-06-14T11:09:52.963Z,24.80
2023-06-14T11:12:21.895Z,24.30
2023-06-14T11:14:49.413Z,23.20
2023-06-14T11:17:17.023Z,22.50
2023-06-14T11:19:45.831Z,22.20
2023-06-14T11:22:15.876Z,21.70
2023-06-14T11:24:44.900Z,21.40
2023-06-14T11:27:12.571Z,21.20
2023-06-14T11:29:39.926Z,21.00
2023-06-14T11:32:13.349Z,20.80
2023-06-14T11:34:40.839Z,20.60
2023-06-14T11:37:08.346Z,20.40
2023-06-14T11:39:36.658Z,20.30
2023-06-14T11:42:04.640Z,20.40
2023-06-14T11:44:33.139Z,20.50
2023-06-14T11:47:00.601Z,20.60
2023-06-14T11:49:28.886Z,20.60
2023-06-14T11:51:56.645Z,20.80
2023-06-14T11:54:24.171Z,20.90
2023-06-14T11:56:52.212Z,21.00
2023-06-14T11:59:21.228Z,21.10
2023-06-14T12:01:49.535Z,21.30
2023-06-14T12:04:26.647Z,21.40
2023-06-14T12:06:56.767Z,21.30
2023-06-14T12:09:26.973Z,21.00
2023-06-14T12:12:02.433Z,20.90
2023-06-14T12:14:32.464Z,21.20
2023-06-14T12:17:07.870Z,21.70
2023-06-14T12:19:43.900Z,22.20
2023-06-14T12:22:12.589Z,22.10
2023-06-14T12:24:40.384Z,21.80
2023-06-14T12:27:08.303Z,21.70
2023-06-14T12:29:36.875Z,21.60
2023-06-14T12:32:04.565Z,21.80
2023-06-14T12:34:32.164Z,21.90
2023-06-14T12:36:59.797Z,21.70
2023-06-14T12:39:27.258Z,21.30
2023-06-14T12:41:55.597Z,21.00
2023-06-14T12:44:22.990Z,20.80
2023-06-14T12:46:52.469Z,20.80
2023-06-14T12:49:21.233Z,20.90
2023-06-14T12:51:48.564Z,20.70
2023-06-14T12:54:22.851Z,20.70
2023-06-14T12:56:56.205Z,21.10
2023-06-14T12:59:23.565Z,21.80
2023-06-14T13:01:51.595Z,22.40
2023-06-14T13:04:19.020Z,22.90
2023-06-14T13:06:46.378Z,23.10
2023-06-14T13:09:16.942Z,23.50
2023-06-14T13:11:47.015Z,24.00
2023-06-14T13:14:25.182Z,24.60
2023-06-14T13:16:53.520Z,24.60
2023-06-14T13:19:21.047Z,24.70
2023-06-14T13:21:49.750Z,24.80
2023-06-14T13:24:17.473Z,24.20
2023-06-14T13:26:45.209Z,23.50
2023-06-14T13:29:12.660Z,22.90
2023-06-14T13:31:40.187Z,22.00
2023-06-14T13:34:07.746Z,21.70
2023-06-14T13:36:35.255Z,22.10
2023-06-14T13:39:02.663Z,22.60
2023-06-14T13:41:35.454Z,23.20
2023-06-14T13:44:05.152Z,23.50
2023-06-14T13:46:32.804Z,24.20
2023-06-14T13:49:01.254Z,24.40
2023-06-14T13:51:28.733Z,24.30
2023-06-14T13:53:56.676Z,24.30
2023-06-14T13:56:25.691Z,23.90
2023-06-14T13:58:53.211Z,23.10
2023-06-14T14:01:23.810Z,22.60
2023-06-14T14:03:51.464Z,22.40
2023-06-14T14:06:18.924Z,21.80
2023-06-14T14:08:46.560Z,21.70
2023-06-14T14:11:13.952Z,22.10
2023-06-14T14:13:41.753Z,23.00
2023-06-14T14:16:09.264Z,23.70
2023-06-14T14:18:37.318Z,23.70
2023-06-14T14:21:04.888Z,23.40
2023-06-14T14:23:32.322Z,23.40
2023-06-14T14:26:01.942Z,23.60
2023-06-14T14:28:29.381Z,23.90
2023-06-14T14:30:56.850Z,23.40
2023-06-14T14:33:24.405Z,22.80
2023-06-14T14:35:51.813Z,22.40
2023-06-14T14:38:19.375Z,22.40
2023-06-14T14:40:46.780Z,22.90
2023-06-14T14:43:14.264Z,23.50
2023-06-14T14:45:41.660Z,24.30
2023-06-14T14:48:09.028Z,24.90
2023-06-14T14:50:36.455Z,25.20
2023-06-14T14:53:04.021Z,24.90
2023-06-14T14:55:31.795Z,24.90
2023-06-14T14:57:59.156Z,24.40
2023-06-14T15:00:26.684Z,24.30
2023-06-14T15:02:54.180Z,24.40
2023-06-14T15:05:21.772Z,24.60
2023-06-14T15:07:49.278Z,24.50
2023-06-14T15:10:16.859Z,24.30
2023-06-14T15:12:44.350Z,24.00
2023-06-14T15:15:11.962Z,23.30
2023-06-14T15:17:39.412Z,22.80
2023-06-14T15:20:08.083Z,22.30
2023-06-14T15:22:35.470Z,22.00
2023-06-14T15:25:03.087Z,21.80
2023-06-14T15:27:30.811Z,21.80
2023-06-14T15:29:58.155Z,22.30
2023-06-14T15:32:25.676Z,22.70
2023-06-14T15:34:53.089Z,22.70
2023-06-14T15:37:20.474Z,22.90
2023-06-14T15:39:47.821Z,23.10
2023-06-14T15:42:15.222Z,23.30
2023-06-14T15:44:43.226Z,23.40
2023-06-14T15:47:10.648Z,22.90
2023-06-14T15:49:38.066Z,22.30
2023-06-14T15:52:07.050Z,22.10
2023-06-14T15:54:34.485Z,22.60
2023-06-14T15:57:01.965Z,22.80
2023-06-14T15:59:29.490Z,22.60
2023-06-14T16:01:56.973Z,22.70
2023-06-14T16:04:24.402Z,23.00
2023-06-14T16:06:51.808Z,23.50
2023-06-14T16:09:19.325Z,23.60
2023-06-14T16:11:46.724Z,23.80
2023-06-14T16:14:14.694Z,24.00
2023-06-14T16:16:42.134Z,24.20
2023-06-14T16:19:09.560Z,24.40
2023-06-14T16:21:38.028Z,24.60
2023-06-14T16:24:05.918Z,25.10
2023-06-14T16:26:33.325Z,25.50
2023-06-14T16:29:00.838Z,25.40
2023-06-14T16:31:28.289Z,24.80
2023-06-14T16:33:56.220Z,24.00
2023-06-14T16:36:24.769Z,23.60
2023-06-14T16:38:52.324Z,23.30
2023-06-14T16:41:19.890Z,22.80
2023-06-14T16:43:47.267Z,22.70
2023-06-14T16:46:15.775Z,22.50
2023-06-14T16:48:43.203Z,22.30
2023-06-14T16:51:10.519Z,22.30
2023-06-14T16:53:37.902Z,22.30
2023-06-14T16:56:07.122Z,22.30
2023-06-14T16:58:34.520Z,22.00
2023-06-14T17:01:02.032Z,21.80
2023-06-14T17:03:29.422Z,21.70
2023-06-14T17:05:57.987Z,21.50
2023-06-14T17:08:26.213Z,21.40
2023-06-14T17:10:54.684Z,21.20
2023-06-14T17:13:22.611Z,21.00
2023-06-14T17:15:50.095Z,20.80
2023-06-14T17:18:17.898Z,20.60
2023-06-14T17:20:45.358Z,20.50
2023-06-14T17:23:12.734Z,20.40
2023-06-14T17:25:40.638Z,20.30
2023-06-14T17:28:08.260Z,20.20
2023-06-14T17:30:35.626Z,20.10
2023-06-14T17:33:03.381Z,20.10
2023-06-14T17:35:30.892Z,20.10
2023-06-14T17:37:58.333Z,20.10
2023-06-14T17:40:32.674Z,20.20
2023-06-14T17:43:05.830Z,20.20
2023-06-14T17:45:33.202Z,20.20
2023-06-14T17:48:02.013Z,20.20
2023-06-14T17:50:29.465Z,20.10
2023-06-14T17:52:56.897Z,19.90
2023-06-14T17:55:24.211Z,19.80
2023-06-14T17:57:51.599Z,19.70
2023-06-14T18:00:19.270Z,19.60
2023-06-14T18:02:47.586Z,19.60
2023-06-14T18:05:15.815Z,19.50
2023-06-14T18:07:43.184Z,19.40
2023-06-14T18:10:10.766Z,19.40
2023-06-14T18:12:38.331Z,19.30
2023-06-14T18:15:06.906Z,19.20
2023-06-14T18:17:34.262Z,19.10
2023-06-14T18:20:03.188Z,19.00
2023-06-14T18:22:30.587Z,18.90
2023-06-14T18:24:59.314Z,18.90
2023-06-14T18:27:26.672Z,18.80
2023-06-14T18:29:54.029Z,18.70
2023-06-14T18:32:21.420Z,18.60
2023-06-14T18:34:50.242Z,18.60
2023-06-14T18:37:17.636Z,18.50
2023-06-14T18:39:45.006Z,18.40
2023-06-14T18:42:12.773Z,18.30
2023-06-14T18:44:40.556Z,18.30
2023-06-14T18:47:08.037Z,18.20
2023-06-14T18:49:35.946Z,18.20
2023-06-14T18:52:03.540Z,18.10
2023-06-14T18:54:30.921Z,18.00
2023-06-14T18:56:58.387Z,17.90
2023-06-14T18:59:26.525Z,17.80
2023-06-14T19:01:53.893Z,17.70
2023-06-14T19:04:21.706Z,17.50
2023-06-14T19:06:49.799Z,17.40
2023-06-14T19:09:19.528Z,17.20
2023-06-14T19:11:48.551Z,17.20
2023-06-14T19:14:16.406Z,17.00
2023-06-14T19:16:43.879Z,16.80
2023-06-14T19:19:11.382Z,16.80
2023-06-14T19:21:38.827Z,16.60
2023-06-14T19:24:06.622Z,16.60
2023-06-14T19:26:34.028Z,16.40
2023-06-14T19:29:01.370Z,16.30
2023-06-14T19:31:28.780Z,16.30
2023-06-14T19:33:56.191Z,16.20
2023-06-14T19:36:23.554Z,16.10
2023-06-14T19:38:51.915Z,16.00
2023-06-14T19:41:19.399Z,15.80
2023-06-14T19:43:46.890Z,15.70
2023-06-14T19:46:14.310Z,15.60
2023-06-14T19:48:41.839Z,15.50
2023-06-14T19:51:09.233Z,15.30
2023-06-14T19:53:36.625Z,15.20
2023-06-14T19:56:04.486Z,15.00
2023-06-14T19:58:31.887Z,14.90
2023-06-14T20:00:59.268Z,14.80
2023-06-14T20:03:26.665Z,14.70
2023-06-14T20:05:55.826Z,14.60
2023-06-14T20:08:25.348Z,14.60
2023-06-14T20:10:53.611Z,14.50
2023-06-14T20:13:21.039Z,15.00
2023-06-14T20:15:48.471Z,15.40
2023-06-14T20:18:15.932Z,15.50
2023-06-14T20:20:45.025Z,15.60
2023-06-14T20:23:12.638Z,15.40
2023-06-14T20:25:40.208Z,15.20
2023-06-14T20:28:07.664Z,14.90
2023-06-14T20:30:35.062Z,14.70
2023-06-14T20:33:02.693Z,14.50
2023-06-14T20:35:30.154Z,14.40
2023-06-14T20:37:57.542Z,14.30
2023-06-14T20:40:26.080Z,14.20
2023-06-14T20:42:58.206Z,14.10
2023-06-14T20:45:27.203Z,13.90
2023-06-14T20:47:55.266Z,13.90
2023-06-14T20:50:22.656Z,13.70
2023-06-14T20:52:50.117Z,13.60
2023-06-14T20:55:18.744Z,13.60
2023-06-14T20:57:47.624Z,13.50
2023-06-14T21:00:17.077Z,13.70
2023-06-14T21:02:44.988Z,14.00
2023-06-14T21:05:12.418Z,14.20
2023-06-14T21:07:39.925Z,14.30
2023-06-14T21:10:07.635Z,14.30
2023-06-14T21:12:35.040Z,14.10
2023-06-14T21:15:02.423Z,13.90
2023-06-14T21:17:29.991Z,13.70
2023-06-14T21:19:57.423Z,13.60
2023-06-14T21:22:24.832Z,13.40
2023-06-14T21:24:52.203Z,13.30
2023-06-14T21:27:19.831Z,13.20
2023-06-14T21:29:47.467Z,13.00
2023-06-14T21:32:14.866Z,12.90
2023-06-14T21:34:44.030Z,12.80
2023-06-14T21:37:11.593Z,12.80
2023-06-14T21:39:40.013Z,12.70
2023-06-14T21:42:08.148Z,12.80
2023-06-14T21:44:42.562Z,13.00
2023-06-14T21:47:13.070Z,13.00
2023-06-14T21:49:41.074Z,12.90
2023-06-14T21:52:09.451Z,12.90
2023-06-14T21:57:27.935Z,12.80
2023-06-14T21:59:55.780Z,12.80
2023-06-14T22:02:23.316Z,12.70
2023-06-14T22:04:50.774Z,12.60
2023-06-14T22:07:19.893Z,12.50
2023-06-14T22:09:47.784Z,12.50
2023-06-14T22:12:17.004Z,12.50
2023-06-14T22:14:49.497Z,12.50
2023-06-14T22:17:19.268Z,12.50
2023-06-14T22:19:51.419Z,12.40
2023-06-14T22:22:25.724Z,12.40
2023-06-14T22:24:54.155Z,12.30
2023-06-14T22:27:23.484Z,12.20
2023-06-14T22:29:58.151Z,12.20
2023-06-14T22:32:28.004Z,12.00
2023-06-14T22:34:59.392Z,12.00
2023-06-14T22:37:37.221Z,11.90
2023-06-14T22:40:16.447Z,11.90
2023-06-14T22:42:49.859Z,11.90
2023-06-14T22:45:18.180Z,11.90
2023-06-14T22:47:45.846Z,12.10
2023-06-14T22:50:13.381Z,12.10
2023-06-14T22:52:41.726Z,12.10
2023-06-14T22:55:09.975Z,12.00
2023-06-14T22:57:38.934Z,11.90
2023-06-14T23:00:12.287Z,11.80
2023-06-14T23:03:04.783Z,11.80
2023-06-14T23:05:32.204Z,11.70
2023-06-14T23:07:59.599Z,11.70
2023-06-14T23:10:26.953Z,11.70
2023-06-14T23:12:54.432Z,11.70
2023-06-14T23:15:21.766Z,11.70
2023-06-14T23:17:51.494Z,11.80
2023-06-14T23:20:19.233Z,11.90
2023-06-14T23:22:46.849Z,12.00
2023-06-14T23:25:15.229Z,12.10
2023-06-14T23:27:44.948Z,12.20
2023-06-14T23:30:14.350Z,12.30
2023-06-14T23:32:41.812Z,12.50
2023-06-14T23:35:09.801Z,12.50
2023-06-14T23:37:37.469Z,12.60
2023-06-14T23:40:11.881Z,12.60
2023-06-14T23:42:42.721Z,12.60
2023-06-14T23:45:11.378Z,12.60
2023-06-14T23:47:39.363Z,12.60
2023-06-14T23:50:07.802Z,12.70
2023-06-14T23:52:36.036Z,12.70
2023-06-14T23:55:05.274Z,12.70
2023-06-14T23:57:32.860Z,12.60
